sensor_id;sensor_type;location;lat;lon;timestamp;temperature;humidity
10980;DHT22;5543;51.734;8.744;2022-10-17T00:01:02;13.80;99.90
10980;DHT22;5543;51.734;8.744;2022-10-17T00:03:31;13.80;99.90
10980;DHT22;5543;51.734;8.744;2022-10-17T00:06:04;13.80;99.90
10980;DHT22;5543;51.734;8.744;2022-10-17T00:08:33;13.80;99.90
10980;DHT22;5543;51.734;8.744;2022-10-17T00:11:04;13.80;99.90
10980;DHT22;5543;51.734;8.744;2022-10-17T00:13:33;13.70;99.90
10980;DHT22;5543;51.734;8.744;2022-10-17T00:16:01;13.70;99.90
10980;DHT22;5543;51.734;8.744;2022-10-17T00:18:30;13.60;99.90
10980;DHT22;5543;51.734;8.744;2022-10-17T00:20:58;13.60;99.90
10980;DHT22;5543;51.734;8.744;2022-10-17T00:23:28;13.60;99.90
10980;DHT22;5543;51.734;8.744;2022-10-17T00:25:59;13.60;99.90
10980;DHT22;5543;51.734;8.744;2022-10-17T00:28:27;13.60;99.90
10980;DHT22;5543;51.734;8.744;2022-10-17T00:30:56;13.50;99.90
10980;DHT22;5543;51.734;8.744;2022-10-17T00:33:24;13.50;99.90
10980;DHT22;5543;51.734;8.744;2022-10-17T00:36:02;13.50;99.90
10980;DHT22;5543;51.734;8.744;2022-10-17T00:38:31;13.50;99.90
10980;DHT22;5543;51.734;8.744;2022-10-17T00:41:00;13.50;99.90
10980;DHT22;5543;51.734;8.744;2022-10-17T00:43:28;13.50;99.90
10980;DHT22;5543;51.734;8.744;2022-10-17T00:45:56;13.50;99.90
10980;DHT22;5543;51.734;8.744;2022-10-17T00:48:25;13.50;99.90
10980;DHT22;5543;51.734;8.744;2022-10-17T00:50:53;13.50;99.90
10980;DHT22;5543;51.734;8.744;2022-10-17T00:53:21;13.40;99.90
10980;DHT22;5543;51.734;8.744;2022-10-17T00:55:52;13.40;99.90
10980;DHT22;5543;51.734;8.744;2022-10-17T00:58:20;13.30;99.90
10980;DHT22;5543;51.734;8.744;2022-10-17T01:00:48;13.30;99.90
10980;DHT22;5543;51.734;8.744;2022-10-17T01:03:16;13.40;99.90
10980;DHT22;5543;51.734;8.744;2022-10-17T01:05:45;13.20;99.90
10980;DHT22;5543;51.734;8.744;2022-10-17T01:08:14;13.20;99.90
10980;DHT22;5543;51.734;8.744;2022-10-17T01:10:49;13.20;99.90
10980;DHT22;5543;51.734;8.744;2022-10-17T01:13:26;13.10;99.90
10980;DHT22;5543;51.734;8.744;2022-10-17T01:16:05;13.10;99.90
10980;DHT22;5543;51.734;8.744;2022-10-17T01:18:47;13.10;99.90
10980;DHT22;5543;51.734;8.744;2022-10-17T01:21:30;13.10;99.90
10980;DHT22;5543;51.734;8.744;2022-10-17T01:24:28;13.10;99.90
10980;DHT22;5543;51.734;8.744;2022-10-17T01:27:26;13.00;99.90
10980;DHT22;5543;51.734;8.744;2022-10-17T01:30:17;13.00;99.90
10980;DHT22;5543;51.734;8.744;2022-10-17T01:32:54;13.00;99.90
10980;DHT22;5543;51.734;8.744;2022-10-17T01:35:26;13.00;99.90
10980;DHT22;5543;51.734;8.744;2022-10-17T01:38:03;12.90;99.90
10980;DHT22;5543;51.734;8.744;2022-10-17T01:40:38;12.90;99.90
10980;DHT22;5543;51.734;8.744;2022-10-17T01:43:14;12.90;99.90
10980;DHT22;5543;51.734;8.744;2022-10-17T01:45:47;12.90;99.90
10980;DHT22;5543;51.734;8.744;2022-10-17T01:48:21;12.90;99.90
10980;DHT22;5543;51.734;8.744;2022-10-17T01:50:52;12.90;99.90
10980;DHT22;5543;51.734;8.744;2022-10-17T01:53:25;13.00;99.90
10980;DHT22;5543;51.734;8.744;2022-10-17T01:55:57;12.90;99.90
10980;DHT22;5543;51.734;8.744;2022-10-17T01:58:28;13.00;99.90
10980;DHT22;5543;51.734;8.744;2022-10-17T02:01:00;12.90;99.90
10980;DHT22;5543;51.734;8.744;2022-10-17T02:03:31;12.90;99.90
10980;DHT22;5543;51.734;8.744;2022-10-17T02:06:00;12.90;99.90
10980;DHT22;5543;51.734;8.744;2022-10-17T02:08:39;12.90;99.90
10980;DHT22;5543;51.734;8.744;2022-10-17T02:11:11;12.80;99.90
10980;DHT22;5543;51.734;8.744;2022-10-17T02:13:55;12.80;99.90
10980;DHT22;5543;51.734;8.744;2022-10-17T02:16:34;12.80;99.90
10980;DHT22;5543;51.734;8.744;2022-10-17T02:19:19;12.80;99.90
10980;DHT22;5543;51.734;8.744;2022-10-17T02:21:52;12.80;99.90
10980;DHT22;5543;51.734;8.744;2022-10-17T02:24:27;12.80;99.90
10980;DHT22;5543;51.734;8.744;2022-10-17T02:27:04;12.80;99.90
10980;DHT22;5543;51.734;8.744;2022-10-17T02:29:38;12.80;99.90
10980;DHT22;5543;51.734;8.744;2022-10-17T02:32:13;12.80;99.90
10980;DHT22;5543;51.734;8.744;2022-10-17T02:34:47;12.80;99.90
10980;DHT22;5543;51.734;8.744;2022-10-17T02:37:20;12.80;99.90
10980;DHT22;5543;51.734;8.744;2022-10-17T02:39:50;12.80;99.90
10980;DHT22;5543;51.734;8.744;2022-10-17T02:42:19;12.90;99.90
10980;DHT22;5543;51.734;8.744;2022-10-17T02:44:49;12.90;99.90
10980;DHT22;5543;51.734;8.744;2022-10-17T02:47:22;13.00;99.90
10980;DHT22;5543;51.734;8.744;2022-10-17T02:49:55;13.00;99.90
10980;DHT22;5543;51.734;8.744;2022-10-17T02:52:28;13.20;99.90
10980;DHT22;5543;51.734;8.744;2022-10-17T02:55:02;13.30;99.90
10980;DHT22;5543;51.734;8.744;2022-10-17T02:57:35;13.20;99.90
10980;DHT22;5543;51.734;8.744;2022-10-17T03:00:06;13.20;99.90
10980;DHT22;5543;51.734;8.744;2022-10-17T03:02:41;13.30;99.90
10980;DHT22;5543;51.734;8.744;2022-10-17T03:05:12;13.40;99.90
10980;DHT22;5543;51.734;8.744;2022-10-17T03:07:40;13.50;99.90
10980;DHT22;5543;51.734;8.744;2022-10-17T03:10:09;13.20;99.90
10980;DHT22;5543;51.734;8.744;2022-10-17T03:12:37;13.20;99.90
10980;DHT22;5543;51.734;8.744;2022-10-17T03:15:06;13.20;99.90
10980;DHT22;5543;51.734;8.744;2022-10-17T03:17:35;13.20;99.90
10980;DHT22;5543;51.734;8.744;2022-10-17T03:20:04;13.20;99.90
10980;DHT22;5543;51.734;8.744;2022-10-17T03:22:34;13.20;99.90
10980;DHT22;5543;51.734;8.744;2022-10-17T03:25:02;13.30;99.90
10980;DHT22;5543;51.734;8.744;2022-10-17T03:27:30;13.30;99.90
10980;DHT22;5543;51.734;8.744;2022-10-17T03:29:58;13.30;99.90
10980;DHT22;5543;51.734;8.744;2022-10-17T03:32:28;13.30;99.90
10980;DHT22;5543;51.734;8.744;2022-10-17T03:34:56;13.20;99.90
10980;DHT22;5543;51.734;8.744;2022-10-17T03:37:24;13.20;99.90
10980;DHT22;5543;51.734;8.744;2022-10-17T03:39:53;13.20;99.90
10980;DHT22;5543;51.734;8.744;2022-10-17T03:42:21;13.20;99.90
10980;DHT22;5543;51.734;8.744;2022-10-17T03:44:49;13.10;99.90
10980;DHT22;5543;51.734;8.744;2022-10-17T03:47:17;13.10;99.90
10980;DHT22;5543;51.734;8.744;2022-10-17T03:49:45;13.10;99.90
10980;DHT22;5543;51.734;8.744;2022-10-17T03:52:14;13.00;99.90
10980;DHT22;5543;51.734;8.744;2022-10-17T03:54:42;13.00;99.90
10980;DHT22;5543;51.734;8.744;2022-10-17T03:57:11;13.00;99.90
10980;DHT22;5543;51.734;8.744;2022-10-17T03:59:39;13.10;99.90
10980;DHT22;5543;51.734;8.744;2022-10-17T04:02:07;13.10;99.90
10980;DHT22;5543;51.734;8.744;2022-10-17T04:04:35;13.20;99.90
10980;DHT22;5543;51.734;8.744;2022-10-17T04:07:03;13.10;99.90
10980;DHT22;5543;51.734;8.744;2022-10-17T04:09:31;13.10;99.90
10980;DHT22;5543;51.734;8.744;2022-10-17T04:11:59;13.00;99.90
10980;DHT22;5543;51.734;8.744;2022-10-17T04:14:29;13.00;99.90
10980;DHT22;5543;51.734;8.744;2022-10-17T04:16:57;13.10;99.90
10980;DHT22;5543;51.734;8.744;2022-10-17T04:19:25;13.00;99.90
10980;DHT22;5543;51.734;8.744;2022-10-17T04:21:53;13.10;99.90
10980;DHT22;5543;51.734;8.744;2022-10-17T04:24:21;13.00;99.90
10980;DHT22;5543;51.734;8.744;2022-10-17T04:26:49;13.00;99.90
10980;DHT22;5543;51.734;8.744;2022-10-17T04:29:18;13.00;99.90
10980;DHT22;5543;51.734;8.744;2022-10-17T04:31:47;13.10;99.90
10980;DHT22;5543;51.734;8.744;2022-10-17T04:34:15;13.10;99.90
10980;DHT22;5543;51.734;8.744;2022-10-17T04:36:43;13.00;99.90
10980;DHT22;5543;51.734;8.744;2022-10-17T04:39:12;13.20;99.90
10980;DHT22;5543;51.734;8.744;2022-10-17T04:41:41;13.20;99.90
10980;DHT22;5543;51.734;8.744;2022-10-17T04:44:09;13.10;99.90
10980;DHT22;5543;51.734;8.744;2022-10-17T04:46:37;13.10;99.90
10980;DHT22;5543;51.734;8.744;2022-10-17T04:49:07;13.00;99.90
10980;DHT22;5543;51.734;8.744;2022-10-17T04:51:37;12.90;99.90
10980;DHT22;5543;51.734;8.744;2022-10-17T04:54:05;13.10;99.90
10980;DHT22;5543;51.734;8.744;2022-10-17T04:56:33;13.10;99.90
10980;DHT22;5543;51.734;8.744;2022-10-17T04:59:01;13.20;99.90
10980;DHT22;5543;51.734;8.744;2022-10-17T05:01:29;13.30;99.90
10980;DHT22;5543;51.734;8.744;2022-10-17T05:03:57;13.30;99.90
10980;DHT22;5543;51.734;8.744;2022-10-17T05:06:26;13.30;99.90
10980;DHT22;5543;51.734;8.744;2022-10-17T05:08:54;13.30;99.90
10980;DHT22;5543;51.734;8.744;2022-10-17T05:11:25;13.40;99.90
10980;DHT22;5543;51.734;8.744;2022-10-17T05:13:55;13.30;99.90
10980;DHT22;5543;51.734;8.744;2022-10-17T05:16:24;13.10;99.90
10980;DHT22;5543;51.734;8.744;2022-10-17T05:18:54;13.10;99.90
10980;DHT22;5543;51.734;8.744;2022-10-17T05:21:23;13.10;99.90
10980;DHT22;5543;51.734;8.744;2022-10-17T05:23:54;13.10;99.90
10980;DHT22;5543;51.734;8.744;2022-10-17T05:26:23;13.10;99.90
10980;DHT22;5543;51.734;8.744;2022-10-17T05:28:51;13.10;99.90
10980;DHT22;5543;51.734;8.744;2022-10-17T05:31:20;13.20;99.90
10980;DHT22;5543;51.734;8.744;2022-10-17T05:33:48;13.30;99.90
10980;DHT22;5543;51.734;8.744;2022-10-17T05:36:16;13.40;99.90
10980;DHT22;5543;51.734;8.744;2022-10-17T05:38:48;13.40;99.90
10980;DHT22;5543;51.734;8.744;2022-10-17T05:41:18;13.50;99.90
10980;DHT22;5543;51.734;8.744;2022-10-17T05:43:46;13.60;99.90
10980;DHT22;5543;51.734;8.744;2022-10-17T05:46:15;13.70;99.90
10980;DHT22;5543;51.734;8.744;2022-10-17T05:48:43;13.90;99.90
10980;DHT22;5543;51.734;8.744;2022-10-17T05:51:11;13.90;99.90
10980;DHT22;5543;51.734;8.744;2022-10-17T05:53:40;14.10;99.90
10980;DHT22;5543;51.734;8.744;2022-10-17T05:56:10;14.10;99.90
10980;DHT22;5543;51.734;8.744;2022-10-17T05:58:41;14.10;99.90
10980;DHT22;5543;51.734;8.744;2022-10-17T06:01:16;14.20;99.90
10980;DHT22;5543;51.734;8.744;2022-10-17T06:03:44;14.20;99.90
10980;DHT22;5543;51.734;8.744;2022-10-17T06:06:14;14.30;99.90
10980;DHT22;5543;51.734;8.744;2022-10-17T06:08:43;14.40;99.90
10980;DHT22;5543;51.734;8.744;2022-10-17T06:11:13;14.50;99.90
10980;DHT22;5543;51.734;8.744;2022-10-17T06:13:42;14.60;99.90
10980;DHT22;5543;51.734;8.744;2022-10-17T06:16:10;14.70;99.90
10980;DHT22;5543;51.734;8.744;2022-10-17T06:18:38;14.80;99.90
10980;DHT22;5543;51.734;8.744;2022-10-17T06:21:08;14.80;99.90
10980;DHT22;5543;51.734;8.744;2022-10-17T06:23:37;14.90;99.90
10980;DHT22;5543;51.734;8.744;2022-10-17T06:26:05;14.90;99.90
10980;DHT22;5543;51.734;8.744;2022-10-17T06:28:34;14.90;99.90
10980;DHT22;5543;51.734;8.744;2022-10-17T06:31:05;15.10;99.90
10980;DHT22;5543;51.734;8.744;2022-10-17T06:33:34;15.10;99.90
10980;DHT22;5543;51.734;8.744;2022-10-17T06:36:03;15.20;99.90
10980;DHT22;5543;51.734;8.744;2022-10-17T06:38:33;15.30;99.90
10980;DHT22;5543;51.734;8.744;2022-10-17T06:41:03;15.40;99.90
10980;DHT22;5543;51.734;8.744;2022-10-17T06:43:34;15.30;99.90
10980;DHT22;5543;51.734;8.744;2022-10-17T06:46:02;15.50;99.90
10980;DHT22;5543;51.734;8.744;2022-10-17T06:48:32;15.60;99.90
10980;DHT22;5543;51.734;8.744;2022-10-17T06:51:01;15.70;99.90
10980;DHT22;5543;51.734;8.744;2022-10-17T06:53:31;15.70;99.90
10980;DHT22;5543;51.734;8.744;2022-10-17T06:56:00;15.80;99.90
10980;DHT22;5543;51.734;8.744;2022-10-17T06:58:31;15.90;99.90
10980;DHT22;5543;51.734;8.744;2022-10-17T07:01:01;16.10;99.90
10980;DHT22;5543;51.734;8.744;2022-10-17T07:03:31;16.10;99.90
10980;DHT22;5543;51.734;8.744;2022-10-17T07:05:59;16.20;99.90
10980;DHT22;5543;51.734;8.744;2022-10-17T07:08:28;16.30;99.90
10980;DHT22;5543;51.734;8.744;2022-10-17T07:10:56;16.30;99.90
10980;DHT22;5543;51.734;8.744;2022-10-17T07:13:25;16.40;99.90
10980;DHT22;5543;51.734;8.744;2022-10-17T07:15:53;16.50;99.90
10980;DHT22;5543;51.734;8.744;2022-10-17T07:18:26;16.50;99.90
10980;DHT22;5543;51.734;8.744;2022-10-17T07:20:55;16.50;99.90
10980;DHT22;5543;51.734;8.744;2022-10-17T07:23:23;16.60;99.90
10980;DHT22;5543;51.734;8.744;2022-10-17T07:25:57;16.70;99.90
10980;DHT22;5543;51.734;8.744;2022-10-17T07:28:26;16.80;99.90
10980;DHT22;5543;51.734;8.744;2022-10-17T07:30:56;16.90;99.90
10980;DHT22;5543;51.734;8.744;2022-10-17T07:33:30;17.00;99.90
10980;DHT22;5543;51.734;8.744;2022-10-17T07:36:01;17.10;99.90
10980;DHT22;5543;51.734;8.744;2022-10-17T07:38:30;17.20;99.90
10980;DHT22;5543;51.734;8.744;2022-10-17T07:41:00;17.30;99.90
10980;DHT22;5543;51.734;8.744;2022-10-17T07:43:29;17.30;99.90
10980;DHT22;5543;51.734;8.744;2022-10-17T07:45:59;17.30;99.90
10980;DHT22;5543;51.734;8.744;2022-10-17T07:48:28;17.30;99.90
10980;DHT22;5543;51.734;8.744;2022-10-17T07:51:00;17.40;99.90
10980;DHT22;5543;51.734;8.744;2022-10-17T07:53:30;17.40;99.90
10980;DHT22;5543;51.734;8.744;2022-10-17T07:55:58;17.50;99.90
10980;DHT22;5543;51.734;8.744;2022-10-17T07:58:26;17.40;99.90
10980;DHT22;5543;51.734;8.744;2022-10-17T08:01:00;17.50;99.90
10980;DHT22;5543;51.734;8.744;2022-10-17T08:03:28;17.60;99.90
10980;DHT22;5543;51.734;8.744;2022-10-17T08:05:57;17.80;99.90
10980;DHT22;5543;51.734;8.744;2022-10-17T08:08:26;18.00;99.90
10980;DHT22;5543;51.734;8.744;2022-10-17T08:11:01;18.20;99.90
10980;DHT22;5543;51.734;8.744;2022-10-17T08:13:30;18.50;99.90
10980;DHT22;5543;51.734;8.744;2022-10-17T08:15:59;18.60;99.90
10980;DHT22;5543;51.734;8.744;2022-10-17T08:18:28;18.80;99.90
10980;DHT22;5543;51.734;8.744;2022-10-17T08:20:58;18.90;99.90
10980;DHT22;5543;51.734;8.744;2022-10-17T08:23:27;19.20;99.90
10980;DHT22;5543;51.734;8.744;2022-10-17T08:25:59;19.60;99.90
10980;DHT22;5543;51.734;8.744;2022-10-17T08:28:28;20.10;99.90
10980;DHT22;5543;51.734;8.744;2022-10-17T08:31:02;20.50;99.90
10980;DHT22;5543;51.734;8.744;2022-10-17T08:33:31;20.80;99.90
10980;DHT22;5543;51.734;8.744;2022-10-17T08:35:59;21.20;99.90
10980;DHT22;5543;51.734;8.744;2022-10-17T08:38:28;21.50;99.90
10980;DHT22;5543;51.734;8.744;2022-10-17T08:41:05;22.00;99.90
10980;DHT22;5543;51.734;8.744;2022-10-17T08:43:46;22.50;99.90
10980;DHT22;5543;51.734;8.744;2022-10-17T08:46:17;22.90;99.90
10980;DHT22;5543;51.734;8.744;2022-10-17T08:48:47;23.20;99.90
10980;DHT22;5543;51.734;8.744;2022-10-17T08:51:20;23.30;99.90
10980;DHT22;5543;51.734;8.744;2022-10-17T08:53:52;23.40;99.90
10980;DHT22;5543;51.734;8.744;2022-10-17T08:56:26;23.50;99.90
10980;DHT22;5543;51.734;8.744;2022-10-17T08:59:17;23.50;99.90
10980;DHT22;5543;51.734;8.744;2022-10-17T09:01:49;23.60;99.90
10980;DHT22;5543;51.734;8.744;2022-10-17T09:04:37;23.30;99.90
10980;DHT22;5543;51.734;8.744;2022-10-17T09:07:12;22.80;99.90
10980;DHT22;5543;51.734;8.744;2022-10-17T09:09:49;22.40;99.90
10980;DHT22;5543;51.734;8.744;2022-10-17T09:12:23;22.10;99.90
10980;DHT22;5543;51.734;8.744;2022-10-17T09:15:07;22.00;99.90
10980;DHT22;5543;51.734;8.744;2022-10-17T09:17:46;22.00;99.90
10980;DHT22;5543;51.734;8.744;2022-10-17T09:20:20;22.40;99.90
10980;DHT22;5543;51.734;8.744;2022-10-17T09:22:54;22.90;99.90
10980;DHT22;5543;51.734;8.744;2022-10-17T09:25:24;23.60;99.90
10980;DHT22;5543;51.734;8.744;2022-10-17T09:28:02;24.30;99.90
10980;DHT22;5543;51.734;8.744;2022-10-17T09:30:35;24.90;99.90
10980;DHT22;5543;51.734;8.744;2022-10-17T09:33:14;25.30;99.90
10980;DHT22;5543;51.734;8.744;2022-10-17T09:36:04;25.60;99.90
10980;DHT22;5543;51.734;8.744;2022-10-17T09:38:40;25.90;99.90
10980;DHT22;5543;51.734;8.744;2022-10-17T09:41:15;26.20;99.90
10980;DHT22;5543;51.734;8.744;2022-10-17T09:44:15;26.60;99.90
10980;DHT22;5543;51.734;8.744;2022-10-17T09:49:32;27.60;98.90
10980;DHT22;5543;51.734;8.744;2022-10-17T09:52:02;27.90;98.00
10980;DHT22;5543;51.734;8.744;2022-10-17T09:54:39;28.10;97.60
10980;DHT22;5543;51.734;8.744;2022-10-17T09:57:10;28.20;97.80
10980;DHT22;5543;51.734;8.744;2022-10-17T09:59:41;28.20;97.20
10980;DHT22;5543;51.734;8.744;2022-10-17T10:02:17;27.90;97.80
10980;DHT22;5543;51.734;8.744;2022-10-17T10:04:55;27.50;97.80
10980;DHT22;5543;51.734;8.744;2022-10-17T10:07:35;27.10;98.00
10980;DHT22;5543;51.734;8.744;2022-10-17T10:10:06;26.60;98.70
10980;DHT22;5543;51.734;8.744;2022-10-17T10:12:37;26.60;98.40
10980;DHT22;5543;51.734;8.744;2022-10-17T10:15:30;26.50;98.90
10980;DHT22;5543;51.734;8.744;2022-10-17T10:17:59;26.20;98.30
10980;DHT22;5543;51.734;8.744;2022-10-17T10:20:31;26.10;99.70
10980;DHT22;5543;51.734;8.744;2022-10-17T10:23:13;26.00;99.30
10980;DHT22;5543;51.734;8.744;2022-10-17T10:25:52;25.90;99.90
10980;DHT22;5543;51.734;8.744;2022-10-17T10:28:25;25.70;99.60
10980;DHT22;5543;51.734;8.744;2022-10-17T10:30:57;25.30;99.50
10980;DHT22;5543;51.734;8.744;2022-10-17T10:33:28;25.20;99.90
10980;DHT22;5543;51.734;8.744;2022-10-17T10:35:58;25.10;99.90
10980;DHT22;5543;51.734;8.744;2022-10-17T10:38:28;24.90;99.90
10980;DHT22;5543;51.734;8.744;2022-10-17T10:41:01;24.70;99.90
10980;DHT22;5543;51.734;8.744;2022-10-17T10:43:34;24.50;99.90
10980;DHT22;5543;51.734;8.744;2022-10-17T10:46:15;24.30;99.90
10980;DHT22;5543;51.734;8.744;2022-10-17T10:48:50;24.00;99.90
10980;DHT22;5543;51.734;8.744;2022-10-17T10:51:24;23.90;99.90
10980;DHT22;5543;51.734;8.744;2022-10-17T10:54:01;23.70;99.90
10980;DHT22;5543;51.734;8.744;2022-10-17T10:56:33;23.50;99.90
10980;DHT22;5543;51.734;8.744;2022-10-17T10:59:11;23.40;99.90
10980;DHT22;5543;51.734;8.744;2022-10-17T11:01:50;23.40;99.90
10980;DHT22;5543;51.734;8.744;2022-10-17T11:04:25;23.40;99.90
10980;DHT22;5543;51.734;8.744;2022-10-17T11:06:59;23.50;99.90
10980;DHT22;5543;51.734;8.744;2022-10-17T11:09:36;23.50;99.90
10980;DHT22;5543;51.734;8.744;2022-10-17T11:12:13;23.60;99.90
10980;DHT22;5543;51.734;8.744;2022-10-17T11:14:47;23.60;99.90
10980;DHT22;5543;51.734;8.744;2022-10-17T11:17:24;23.70;99.90
10980;DHT22;5543;51.734;8.744;2022-10-17T11:20:00;23.80;99.90
10980;DHT22;5543;51.734;8.744;2022-10-17T11:22:31;23.80;99.90
10980;DHT22;5543;51.734;8.744;2022-10-17T11:25:15;23.80;99.90
10980;DHT22;5543;51.734;8.744;2022-10-17T11:27:46;23.80;99.90
10980;DHT22;5543;51.734;8.744;2022-10-17T11:30:15;23.80;99.90
10980;DHT22;5543;51.734;8.744;2022-10-17T11:32:47;23.60;99.90
10980;DHT22;5543;51.734;8.744;2022-10-17T11:35:19;23.50;99.90
10980;DHT22;5543;51.734;8.744;2022-10-17T11:37:52;23.30;99.90
10980;DHT22;5543;51.734;8.744;2022-10-17T11:40:30;23.20;99.90
10980;DHT22;5543;51.734;8.744;2022-10-17T11:43:12;22.90;99.90
10980;DHT22;5543;51.734;8.744;2022-10-17T11:45:43;22.80;99.90
10980;DHT22;5543;51.734;8.744;2022-10-17T11:48:18;22.70;99.90
10980;DHT22;5543;51.734;8.744;2022-10-17T11:50:50;22.70;99.90
10980;DHT22;5543;51.734;8.744;2022-10-17T11:53:49;22.60;99.90
10980;DHT22;5543;51.734;8.744;2022-10-17T11:56:24;22.70;99.90
10980;DHT22;5543;51.734;8.744;2022-10-17T11:58:57;22.70;99.90
10980;DHT22;5543;51.734;8.744;2022-10-17T12:01:33;22.60;99.90
10980;DHT22;5543;51.734;8.744;2022-10-17T12:04:21;22.50;99.90
10980;DHT22;5543;51.734;8.744;2022-10-17T12:07:00;22.60;99.90
10980;DHT22;5543;51.734;8.744;2022-10-17T12:09:37;22.40;99.90
10980;DHT22;5543;51.734;8.744;2022-10-17T12:12:07;22.40;99.90
10980;DHT22;5543;51.734;8.744;2022-10-17T12:14:40;22.30;99.90
10980;DHT22;5543;51.734;8.744;2022-10-17T12:17:27;22.20;99.90
10980;DHT22;5543;51.734;8.744;2022-10-17T12:20:25;22.10;99.90
10980;DHT22;5543;51.734;8.744;2022-10-17T12:22:55;22.10;99.90
10980;DHT22;5543;51.734;8.744;2022-10-17T12:25:26;22.00;99.90
10980;DHT22;5543;51.734;8.744;2022-10-17T12:28:10;21.90;99.90
10980;DHT22;5543;51.734;8.744;2022-10-17T12:30:50;21.70;99.90
10980;DHT22;5543;51.734;8.744;2022-10-17T12:33:20;21.60;99.90
10980;DHT22;5543;51.734;8.744;2022-10-17T12:36:35;21.60;99.90
10980;DHT22;5543;51.734;8.744;2022-10-17T12:38:39;21.60;99.90
10980;DHT22;5543;51.734;8.744;2022-10-17T12:41:07;21.60;99.90
10980;DHT22;5543;51.734;8.744;2022-10-17T12:43:46;21.60;99.90
10980;DHT22;5543;51.734;8.744;2022-10-17T12:46:55;21.60;99.90
10980;DHT22;5543;51.734;8.744;2022-10-17T12:49:39;21.50;99.90
10980;DHT22;5543;51.734;8.744;2022-10-17T12:52:25;21.50;99.90
10980;DHT22;5543;51.734;8.744;2022-10-17T12:54:58;21.50;99.90
10980;DHT22;5543;51.734;8.744;2022-10-17T12:57:52;21.40;99.90
10980;DHT22;5543;51.734;8.744;2022-10-17T13:00:27;21.40;99.90
10980;DHT22;5543;51.734;8.744;2022-10-17T13:03:02;21.30;99.90
10980;DHT22;5543;51.734;8.744;2022-10-17T13:05:33;21.30;99.90
10980;DHT22;5543;51.734;8.744;2022-10-17T13:08:06;21.20;99.90
10980;DHT22;5543;51.734;8.744;2022-10-17T13:10:37;21.20;99.90
10980;DHT22;5543;51.734;8.744;2022-10-17T13:13:14;21.20;99.90
10980;DHT22;5543;51.734;8.744;2022-10-17T13:15:47;21.20;99.90
10980;DHT22;5543;51.734;8.744;2022-10-17T13:18:20;21.20;99.90
10980;DHT22;5543;51.734;8.744;2022-10-17T13:20:57;21.20;99.90
10980;DHT22;5543;51.734;8.744;2022-10-17T13:23:31;21.10;99.90
10980;DHT22;5543;51.734;8.744;2022-10-17T13:26:12;21.10;99.90
10980;DHT22;5543;51.734;8.744;2022-10-17T13:28:41;21.00;99.90
10980;DHT22;5543;51.734;8.744;2022-10-17T13:31:27;20.90;99.90
10980;DHT22;5543;51.734;8.744;2022-10-17T13:33:57;20.90;99.90
10980;DHT22;5543;51.734;8.744;2022-10-17T13:36:28;20.90;99.90
10980;DHT22;5543;51.734;8.744;2022-10-17T13:38:59;20.80;99.90
10980;DHT22;5543;51.734;8.744;2022-10-17T13:41:37;20.70;99.90
10980;DHT22;5543;51.734;8.744;2022-10-17T13:44:10;20.70;99.90
10980;DHT22;5543;51.734;8.744;2022-10-17T13:46:39;20.60;99.90
10980;DHT22;5543;51.734;8.744;2022-10-17T13:49:10;20.60;99.90
10980;DHT22;5543;51.734;8.744;2022-10-17T13:51:42;20.60;99.90
10980;DHT22;5543;51.734;8.744;2022-10-17T13:54:31;20.60;99.90
10980;DHT22;5543;51.734;8.744;2022-10-17T13:57:00;20.60;99.90
10980;DHT22;5543;51.734;8.744;2022-10-17T13:59:33;20.50;99.90
10980;DHT22;5543;51.734;8.744;2022-10-17T14:02:02;20.50;99.90
10980;DHT22;5543;51.734;8.744;2022-10-17T14:04:32;20.50;99.90
10980;DHT22;5543;51.734;8.744;2022-10-17T14:07:25;20.50;99.90
10980;DHT22;5543;51.734;8.744;2022-10-17T14:09:59;20.60;99.90
10980;DHT22;5543;51.734;8.744;2022-10-17T14:12:28;20.60;99.90
10980;DHT22;5543;51.734;8.744;2022-10-17T14:14:57;20.70;99.90
10980;DHT22;5543;51.734;8.744;2022-10-17T14:17:42;20.70;99.90
10980;DHT22;5543;51.734;8.744;2022-10-17T14:20:16;20.80;99.90
10980;DHT22;5543;51.734;8.744;2022-10-17T14:23:32;20.90;99.90
10980;DHT22;5543;51.734;8.744;2022-10-17T14:26:06;20.90;99.90
10980;DHT22;5543;51.734;8.744;2022-10-17T14:28:35;21.00;99.90
10980;DHT22;5543;51.734;8.744;2022-10-17T14:31:21;21.10;99.90
10980;DHT22;5543;51.734;8.744;2022-10-17T14:33:52;21.20;99.90
10980;DHT22;5543;51.734;8.744;2022-10-17T14:36:33;21.20;99.90
10980;DHT22;5543;51.734;8.744;2022-10-17T14:39:05;21.20;99.90
10980;DHT22;5543;51.734;8.744;2022-10-17T14:41:43;21.20;99.90
10980;DHT22;5543;51.734;8.744;2022-10-17T14:44:23;21.20;99.90
10980;DHT22;5543;51.734;8.744;2022-10-17T14:46:55;21.10;99.90
10980;DHT22;5543;51.734;8.744;2022-10-17T14:49:34;21.10;99.90
10980;DHT22;5543;51.734;8.744;2022-10-17T14:52:25;21.00;99.90
10980;DHT22;5543;51.734;8.744;2022-10-17T14:54:56;20.80;99.90
10980;DHT22;5543;51.734;8.744;2022-10-17T14:57:40;20.70;99.90
10980;DHT22;5543;51.734;8.744;2022-10-17T15:00:12;20.60;99.90
10980;DHT22;5543;51.734;8.744;2022-10-17T15:02:41;20.40;99.90
10980;DHT22;5543;51.734;8.744;2022-10-17T15:05:09;20.30;99.90
10980;DHT22;5543;51.734;8.744;2022-10-17T15:07:39;20.10;99.90
10980;DHT22;5543;51.734;8.744;2022-10-17T15:10:23;20.10;99.90
10980;DHT22;5543;51.734;8.744;2022-10-17T15:12:52;20.00;99.90
10980;DHT22;5543;51.734;8.744;2022-10-17T15:15:31;19.90;99.90
10980;DHT22;5543;51.734;8.744;2022-10-17T15:17:59;19.80;99.90
10980;DHT22;5543;51.734;8.744;2022-10-17T15:20:28;19.80;99.90
10980;DHT22;5543;51.734;8.744;2022-10-17T15:22:57;19.70;99.90
10980;DHT22;5543;51.734;8.744;2022-10-17T15:25:29;19.70;99.90
10980;DHT22;5543;51.734;8.744;2022-10-17T15:27:57;19.70;99.90
10980;DHT22;5543;51.734;8.744;2022-10-17T15:30:28;19.70;99.90
10980;DHT22;5543;51.734;8.744;2022-10-17T15:32:58;19.70;99.90
10980;DHT22;5543;51.734;8.744;2022-10-17T15:35:26;19.60;99.90
10980;DHT22;5543;51.734;8.744;2022-10-17T15:37:55;19.60;99.90
10980;DHT22;5543;51.734;8.744;2022-10-17T15:40:25;19.60;99.90
10980;DHT22;5543;51.734;8.744;2022-10-17T15:42:56;19.50;99.90
10980;DHT22;5543;51.734;8.744;2022-10-17T15:45:24;19.50;99.90
10980;DHT22;5543;51.734;8.744;2022-10-17T15:47:55;19.50;99.90
10980;DHT22;5543;51.734;8.744;2022-10-17T15:50:25;19.40;99.90
10980;DHT22;5543;51.734;8.744;2022-10-17T15:52:54;19.40;99.90
10980;DHT22;5543;51.734;8.744;2022-10-17T15:55:23;19.30;99.90
10980;DHT22;5543;51.734;8.744;2022-10-17T15:57:51;19.30;99.90
10980;DHT22;5543;51.734;8.744;2022-10-17T16:00:22;19.30;99.90
10980;DHT22;5543;51.734;8.744;2022-10-17T16:02:51;19.20;99.90
10980;DHT22;5543;51.734;8.744;2022-10-17T16:05:21;19.20;99.90
10980;DHT22;5543;51.734;8.744;2022-10-17T16:07:49;19.10;99.90
10980;DHT22;5543;51.734;8.744;2022-10-17T16:10:18;19.20;99.90
10980;DHT22;5543;51.734;8.744;2022-10-17T16:12:46;19.20;99.90
10980;DHT22;5543;51.734;8.744;2022-10-17T16:15:18;19.30;99.90
10980;DHT22;5543;51.734;8.744;2022-10-17T16:17:49;19.30;99.90
10980;DHT22;5543;51.734;8.744;2022-10-17T16:20:18;19.30;99.90
10980;DHT22;5543;51.734;8.744;2022-10-17T16:22:47;19.30;99.90